Time;durP1;ratioP1;P1;durP2;ratioP2;P2;SDS_P1;SDS_P2;PMS_P1;PMS_P2;Temp;Humidity;BMP_temperature;BMP_pressure;BME280_temperature;BME280_humidity;BME280_pressure;Samples;Min_cycle;Max_cycle;Signal;HPM_P1;HPM_P2
2022/08/25 00:00:12;;;;;;;19.25;9.52;;;;;;;19.97;97.36;99973.53;4451385;32;33590;-90
2022/08/25 00:02:40;;;;;;;14.65;8.90;;;;;;;20.16;95.02;99970.19;4428449;32;32034;-87
2022/08/25 00:05:27;;;;;;;15.32;8.05;;;;;;;20.13;94.75;99966.69;4457116;32;33825;-91
2022/08/25 00:07:59;;;;;;;13.43;8.10;;;;;;;20.08;94.47;99965.75;4453700;32;33929;-89
2022/08/25 00:10:27;;;;;;;17.37;8.00;;;;;;;20.17;94.12;99964.09;4447057;32;34345;-89
2022/08/25 00:12:55;;;;;;;15.85;8.18;;;;;;;20.40;92.82;99966.03;4449983;32;33706;-88
2022/08/25 00:15:22;;;;;;;12.98;8.05;;;;;;;20.64;91.04;99970.59;4464951;32;32975;-88
2022/08/25 00:17:50;;;;;;;15.35;7.85;;;;;;;20.91;89.11;99961.09;4448438;32;34163;-89
2022/08/25 00:20:18;;;;;;;16.83;7.85;;;;;;;20.59;90.77;99969.63;4451418;32;32326;-89
2022/08/25 00:22:45;;;;;;;16.52;7.87;;;;;;;21.20;87.07;99963.87;4429476;32;32992;-90
2022/08/25 00:25:13;;;;;;;12.90;7.90;;;;;;;20.91;88.50;99961.97;4445252;32;31845;-88
2022/08/25 00:27:42;;;;;;;14.05;8.30;;;;;;;20.33;92.66;99961.56;4442817;32;32268;-90
2022/08/25 00:30:15;;;;;;;17.35;7.95;;;;;;;20.17;93.72;99953.56;4453530;32;34345;-90
2022/08/25 00:32:44;;;;;;;14.70;8.13;;;;;;;20.09;93.95;99963.16;4461448;32;32082;-88
2022/08/25 00:35:24;;;;;;;15.32;8.23;;;;;;;19.92;94.74;99954.22;4442868;32;32813;-89
2022/08/25 00:37:52;;;;;;;13.62;8.00;;;;;;;19.70;96.91;99953.09;4442321;32;32880;-88
2022/08/25 00:40:20;;;;;;;14.25;8.38;;;;;;;19.68;97.54;99955.69;4447554;32;33653;-88
2022/08/25 00:42:48;;;;;;;16.67;8.13;;;;;;;19.68;97.29;99949.56;4451667;32;33057;-90
2022/08/25 00:45:15;;;;;;;13.75;8.02;;;;;;;19.56;97.96;99959.06;4452443;32;33063;-88
2022/08/25 00:47:43;;;;;;;15.77;8.13;;;;;;;19.62;97.88;99960.88;4438127;32;34555;-88
2022/08/25 00:50:11;;;;;;;16.40;8.32;;;;;;;19.50;98.71;99956.37;4453650;32;33680;-89
2022/08/25 00:52:53;;;;;;;18.55;8.95;;;;;;;19.31;100.00;99951.78;4440533;32;33496;-90
2022/08/25 00:55:24;;;;;;;14.73;8.48;;;;;;;19.44;99.37;99954.56;4436207;32;33959;-89
2022/08/25 00:58:06;;;;;;;18.30;8.68;;;;;;;19.73;97.19;99954.03;4444366;32;33393;-88
2022/08/25 01:00:38;;;;;;;16.40;8.70;;;;;;;19.65;97.53;99961.81;4449293;32;32369;-89
2022/08/25 01:03:05;;;;;;;14.70;8.13;;;;;;;19.61;98.29;99959.16;4444805;32;33646;-89
2022/08/25 01:05:34;;;;;;;13.77;7.00;;;;;;;19.68;97.71;99954.81;4439019;32;34055;-89
2022/08/25 01:08:02;;;;;;;20.02;8.80;;;;;;;19.78;96.77;99952.34;4443393;32;33744;-89
2022/08/25 01:10:35;;;;;;;17.08;8.20;;;;;;;19.99;95.44;99951.66;4441677;32;34644;-89
2022/08/25 01:13:20;;;;;;;13.35;7.72;;;;;;;20.06;94.52;99957.84;4428269;32;32159;-88
2022/08/25 01:15:48;;;;;;;12.20;8.18;;;;;;;20.49;92.02;99946.78;4437276;32;32649;-88
2022/08/25 01:18:16;;;;;;;21.08;8.32;;;;;;;20.43;90.64;99951.12;4447219;32;33739;-90
2022/08/25 01:20:48;;;;;;;16.10;8.23;;;;;;;20.45;91.16;99953.75;4449945;32;34462;-89
2022/08/25 01:23:16;;;;;;;12.77;8.23;;;;;;;20.03;93.59;99956.09;4437391;32;33452;-88
2022/08/25 01:26:06;;;;;;;18.62;8.07;;;;;;;19.67;96.02;99953.94;4447587;32;33953;-90
2022/08/25 01:28:35;;;;;;;14.48;7.75;;;;;;;19.40;98.30;99955.41;4431677;32;33103;-89
2022/08/25 01:31:04;;;;;;;16.10;8.73;;;;;;;19.48;97.97;99950.25;4442267;32;33874;-89
2022/08/25 01:33:50;;;;;;;14.57;8.02;;;;;;;19.40;99.07;99955.41;4448358;32;34371;-89
2022/08/25 01:36:19;;;;;;;14.18;7.90;;;;;;;19.40;98.19;99944.91;4436488;32;34031;-88
2022/08/25 01:38:47;;;;;;;14.32;7.85;;;;;;;19.52;97.64;99949.41;4448403;32;33576;-89
2022/08/25 01:41:21;;;;;;;16.02;7.82;;;;;;;19.58;97.14;99948.59;4441439;32;35196;-90
2022/08/25 01:43:48;;;;;;;15.02;7.35;;;;;;;19.53;96.80;99942.41;4446002;32;33542;-90
2022/08/25 01:46:16;;;;;;;19.08;8.68;;;;;;;19.43;97.86;99950.19;4437782;32;32556;-89
2022/08/25 01:48:44;;;;;;;22.25;8.45;;;;;;;19.23;99.89;99949.06;4444844;32;33827;-89
2022/08/25 01:51:13;;;;;;;15.32;8.52;;;;;;;18.97;100.00;99941.75;4428041;32;32671;-89
2022/08/25 01:53:43;;;;;;;18.08;8.63;;;;;;;19.45;97.84;99952.81;4446525;32;35871;-90
2022/08/25 01:56:14;;;;;;;21.58;8.40;;;;;;;19.41;97.80;99951.94;4441852;32;32745;-90
2022/08/25 01:58:45;;;;;;;16.27;7.85;;;;;;;19.77;95.81;99955.81;4447955;32;33896;-89
2022/08/25 02:01:19;;;;;;;16.15;8.05;;;;;;;20.04;93.37;99956.94;4451717;32;33517;-88
2022/08/25 02:03:49;;;;;;;17.90;7.62;;;;;;;19.94;93.12;99947.22;4425660;32;32996;-89
2022/08/25 02:06:21;;;;;;;16.35;8.02;;;;;;;19.83;94.42;99950.63;4460603;26;33378;-76
2022/08/25 02:09:20;;;;;;;20.62;8.82;;;;;;;19.95;93.44;99948.97;4432187;32;34009;-76
2022/08/25 02:11:48;;;;;;;15.10;9.02;;;;;;;20.13;91.89;99946.53;4432684;32;34485;-79
2022/08/25 02:14:17;;;;;;;14.63;7.93;;;;;;;20.00;92.37;99942.91;4433247;32;33790;-79
2022/08/25 02:16:47;;;;;;;15.75;8.60;;;;;;;19.89;92.68;99938.41;4431248;32;32062;-76
2022/08/25 02:19:16;;;;;;;16.10;8.13;;;;;;;19.83;92.94;99942.72;4436152;32;33824;-77
2022/08/25 02:21:43;;;;;;;12.98;8.02;;;;;;;19.69;94.02;99936.44;4436689;32;34083;-76
2022/08/25 02:24:11;;;;;;;14.65;8.40;;;;;;;19.77;93.61;99940.06;4436213;32;34409;-77
2022/08/25 02:26:40;;;;;;;15.13;8.55;;;;;;;19.55;94.97;99938.06;4438457;32;34085;-79
2022/08/25 02:29:08;;;;;;;15.25;8.35;;;;;;;19.63;94.26;99933.75;4436775;32;34632;-77
2022/08/25 02:31:38;;;;;;;14.13;7.97;;;;;;;19.65;94.34;99930.28;4438486;32;34778;-80
2022/08/25 02:34:06;;;;;;;18.85;8.07;;;;;;;19.57;94.73;99941.59;4434388;32;34686;-77
2022/08/25 02:36:35;;;;;;;16.62;8.43;;;;;;;19.63;94.70;99939.03;4433191;32;33522;-79
2022/08/25 02:39:05;;;;;;;17.87;9.02;;;;;;;19.75;93.91;99941.78;4437031;32;32435;-80
2022/08/25 02:41:33;;;;;;;16.05;8.40;;;;;;;19.90;92.61;99945.44;4437303;32;33885;-77
2022/08/25 02:44:02;;;;;;;18.45;8.25;;;;;;;20.07;90.94;99938.59;4435386;32;34508;-78
2022/08/25 02:46:30;;;;;;;11.82;7.70;;;;;;;19.98;91.67;99933.25;4435431;32;33972;-80
2022/08/25 02:48:58;;;;;;;16.05;8.50;;;;;;;19.98;91.19;99933.25;4439312;32;34549;-79
2022/08/25 02:51:30;;;;;;;15.02;7.87;;;;;;;20.35;88.75;99928.28;4438532;32;33737;-77
2022/08/25 02:54:00;;;;;;;13.07;7.32;;;;;;;20.40;88.76;99921.31;4431919;32;33906;-80
2022/08/25 02:56:30;;;;;;;14.57;8.30;;;;;;;20.42;87.42;99930.94;4437080;32;33517;-79
2022/08/25 02:58:59;;;;;;;10.43;7.10;;;;;;;20.39;87.73;99935.31;4435651;32;33923;-79
2022/08/25 03:01:27;;;;;;;12.82;8.02;;;;;;;19.76;91.05;99927.78;4437503;32;33639;-79
2022/08/25 03:03:56;;;;;;;13.40;7.72;;;;;;;19.74;90.84;99934.78;4435376;32;33687;-78
2022/08/25 03:06:24;;;;;;;17.00;8.32;;;;;;;19.44;93.09;99928.31;4426773;32;33770;-77
2022/08/25 03:08:52;;;;;;;17.83;8.82;;;;;;;19.12;96.58;99922.69;4438711;32;33991;-80
2022/08/25 03:11:20;;;;;;;15.77;8.07;;;;;;;19.14;97.69;99925.31;4437056;32;34663;-77
2022/08/25 03:13:49;;;;;;;16.77;7.97;;;;;;;19.31;96.49;99930.78;4431586;32;33818;-79
2022/08/25 03:16:17;;;;;;;16.48;8.18;;;;;;;19.59;94.09;99927.59;4426620;32;33429;-78
2022/08/25 03:18:45;;;;;;;17.27;8.35;;;;;;;19.61;93.45;99932.87;4437623;32;34007;-80
2022/08/25 03:21:13;;;;;;;18.62;9.30;;;;;;;19.62;93.22;99929.34;4435878;32;33973;-76
2022/08/25 03:23:42;;;;;;;15.55;8.63;;;;;;;19.45;95.02;99927.44;4434776;32;33677;-78
2022/08/25 03:28:56;;;;;;;15.75;8.80;;;;;;;18.91;100.00;99912.81;4434809;32;34500;-78
2022/08/25 03:31:27;;;;;;;16.98;8.68;;;;;;;18.94;100.00;99915.47;4438060;32;34743;-77
2022/08/25 03:33:54;;;;;;;18.55;9.48;;;;;;;18.91;100.00;99927.66;4434808;32;33824;-77
2022/08/25 03:36:22;;;;;;;22.62;9.43;;;;;;;18.96;100.00;99924.22;4435136;32;33963;-77
2022/08/25 03:38:51;;;;;;;17.05;9.20;;;;;;;18.99;99.58;99926.91;4437994;32;33690;-80
2022/08/25 03:41:24;;;;;;;17.05;9.90;;;;;;;19.08;99.56;99925.25;4433430;32;34724;-78
2022/08/25 03:43:55;;;;;;;15.95;9.20;;;;;;;19.14;98.37;99930.56;4436583;32;34402;-79
2022/08/25 03:46:26;;;;;;;15.40;9.70;;;;;;;18.91;100.00;99925.94;4427635;32;33148;-80
2022/08/25 03:48:54;;;;;;;16.83;9.35;;;;;;;18.92;100.00;99922.44;4435152;32;33064;-79
2022/08/25 03:51:25;;;;;;;19.02;10.00;;;;;;;18.95;100.00;99922.50;4433274;32;33903;-80
2022/08/25 03:53:52;;;;;;;16.87;10.15;;;;;;;18.90;100.00;99925.91;4431839;32;34003;-79
2022/08/25 03:56:20;;;;;;;19.20;10.27;;;;;;;18.90;100.00;99921.53;4436585;32;33176;-80
2022/08/25 03:58:48;;;;;;;18.23;10.73;;;;;;;18.99;100.00;99920.78;4437197;32;33304;-78
2022/08/25 04:01:15;;;;;;;17.85;10.52;;;;;;;18.77;100.00;99924.81;4436918;32;34059;-79
2022/08/25 04:03:45;;;;;;;18.98;10.90;;;;;;;18.88;100.00;99925.00;4437448;32;33694;-79
2022/08/25 04:06:15;;;;;;;20.02;11.77;;;;;;;18.99;100.00;99926.91;4433019;32;33319;-78
2022/08/25 04:08:42;;;;;;;25.02;12.00;;;;;;;18.96;100.00;99926.84;4432680;32;33814;-77
2022/08/25 04:11:13;;;;;;;21.10;12.43;;;;;;;19.10;100.00;99921.78;4435496;32;33706;-78
2022/08/25 04:13:41;;;;;;;21.87;11.43;;;;;;;18.95;100.00;99929.47;4437532;32;32743;-79
2022/08/25 04:16:11;;;;;;;20.37;11.30;;;;;;;18.98;100.00;99934.75;4432689;32;32855;-80
2022/08/25 04:18:40;;;;;;;26.40;12.15;;;;;;;18.98;100.00;99935.62;4430603;32;34577;-76
2022/08/25 04:21:08;;;;;;;17.10;11.85;;;;;;;18.76;100.00;99938.81;4435306;32;34623;-76
2022/08/25 04:23:39;;;;;;;18.60;11.63;;;;;;;18.98;100.00;99942.63;4434527;32;33764;-76
2022/08/25 04:26:09;;;;;;;26.48;12.68;;;;;;;19.14;100.00;99935.81;4432939;32;32970;-76
2022/08/25 04:28:37;;;;;;;19.92;12.20;;;;;;;19.26;100.00;99941.25;4431659;32;33713;-79
2022/08/25 04:31:07;;;;;;;20.27;12.25;;;;;;;19.27;100.00;99935.13;4432704;32;33530;-81
2022/08/25 04:33:35;;;;;;;18.92;12.25;;;;;;;19.42;100.00;99937.91;4445909;32;33692;-78
2022/08/25 04:36:05;;;;;;;22.25;12.70;;;;;;;19.45;100.00;99937.97;4434733;32;33364;-78
2022/08/25 04:38:40;;;;;;;26.50;12.05;;;;;;;19.55;100.00;99938.94;4432817;32;33948;-78
2022/08/25 04:41:09;;;;;;;19.58;11.48;;;;;;;19.52;100.00;99938.03;4432504;32;34866;-80
2022/08/25 04:43:38;;;;;;;21.70;12.43;;;;;;;19.59;99.01;99934.59;4434323;32;34653;-78
2022/08/25 04:46:14;;;;;;;21.95;11.82;;;;;;;19.69;99.58;99930.31;4433202;32;33425;-78
2022/08/25 04:48:48;;;;;;;25.25;13.73;;;;;;;19.65;100.00;99939.91;4434598;32;33960;-76
2022/08/25 04:51:18;;;;;;;22.92;12.25;;;;;;;19.29;100.00;99930.75;4433190;32;34038;-77
2022/08/25 04:53:46;;;;;;;21.42;12.15;;;;;;;19.65;100.00;99932.03;4434066;32;35889;-81
2022/08/25 04:56:16;;;;;;;20.05;11.80;;;;;;;19.87;98.45;99934.88;4434787;32;33608;-78
2022/08/25 04:58:45;;;;;;;18.92;12.02;;;;;;;19.81;99.13;99936.59;4428946;32;33910;-80
2022/08/25 05:01:16;;;;;;;18.95;11.98;;;;;;;19.94;98.60;99936.72;4428417;32;32768;-77
2022/08/25 05:03:46;;;;;;;21.52;12.45;;;;;;;20.02;98.19;99940.28;4433255;32;34959;-80
2022/08/25 05:06:14;;;;;;;24.02;12.55;;;;;;;20.26;97.23;99939.59;4430354;32;33300;-76
2022/08/25 05:08:43;;;;;;;18.73;11.65;;;;;;;20.25;96.59;99939.59;4436332;32;34653;-80
2022/08/25 05:11:16;;;;;;;23.02;11.98;;;;;;;20.02;98.84;99935.03;4434392;32;33745;-80
2022/08/25 05:13:45;;;;;;;17.65;11.55;;;;;;;20.13;97.72;99933.37;4426685;32;34424;-79
2022/08/25 05:16:18;;;;;;;;;;;;;;;20.45;96.01;99935.34;4434959;32;33059;-82
2022/08/25 05:18:46;;;;;;;18.42;11.45;;;;;;;20.48;95.82;99927.47;4434021;32;32737;-78
2022/08/25 05:21:16;;;;;;;16.45;10.98;;;;;;;20.95;91.79;99924.25;4430337;32;34630;-80
2022/08/25 05:23:45;;;;;;;19.23;12.20;;;;;;;20.95;92.55;99932.16;4429098;32;33085;-79
2022/08/25 05:26:16;;;;;;;26.48;11.52;;;;;;;20.13;99.27;99933.37;4431498;32;33256;-79
2022/08/25 05:28:51;;;;;;;19.15;11.70;;;;;;;20.72;94.53;99931.16;4426519;32;34669;-78
2022/08/25 05:31:21;;;;;;;19.80;11.75;;;;;;;21.02;93.84;99933.94;4417744;32;32314;-79
2022/08/25 05:33:50;;;;;;;19.37;11.65;;;;;;;20.67;96.51;99927.63;4432702;32;33837;-78
2022/08/25 05:36:18;;;;;;;23.25;12.48;;;;;;;21.41;91.42;99929.69;4433451;32;33312;-80
2022/08/25 05:38:47;;;;;;;25.60;11.23;;;;;;;21.41;91.37;99931.44;4430413;32;33908;-78
2022/08/25 05:41:17;;;;;;;18.62;11.20;;;;;;;20.99;94.92;99933.06;4434011;32;34643;-79
2022/08/25 05:43:47;;;;;;;23.40;11.82;;;;;;;21.47;91.57;99926.22;4431560;32;33597;-79
2022/08/25 05:46:17;;;;;;;16.77;11.12;;;;;;;21.26;93.75;99926.13;4431618;32;34200;-78
2022/08/25 05:48:45;;;;;;;19.73;11.75;;;;;;;21.38;93.48;99932.34;4435188;32;34555;-78
2022/08/25 05:51:13;;;;;;;16.87;11.88;;;;;;;21.41;93.65;99932.31;4427159;32;33560;-79
2022/08/25 05:53:43;;;;;;;21.52;11.93;;;;;;;21.41;94.71;99927.06;4427800;32;33498;-81
2022/08/25 05:56:12;;;;;;;17.52;10.88;;;;;;;21.87;92.04;99926.28;4434127;32;33164;-78
2022/08/25 05:58:41;;;;;;;17.52;9.13;;;;;;;22.53;88.21;99928.91;4433514;32;34465;-81
2022/08/25 06:04:03;;;;;;;14.55;10.23;;;;;;;21.79;91.71;99923.66;4430726;32;33844;-79
2022/08/25 06:06:31;;;;;;;17.25;10.82;;;;;;;21.64;93.21;99923.63;4433633;32;33082;-81
2022/08/25 06:09:00;;;;;;;20.10;10.80;;;;;;;21.68;94.38;99920.13;4435157;32;34004;-82
2022/08/25 06:11:28;;;;;;;15.85;10.38;;;;;;;21.86;92.70;99924.53;4436661;32;34713;-82
2022/08/25 06:13:56;;;;;;;16.60;9.40;;;;;;;22.17;91.09;99928.06;4436089;32;34024;-84
2022/08/25 06:16:24;;;;;;;15.65;9.45;;;;;;;22.96;86.43;99920.00;4435598;32;33640;-82
2022/08/25 06:18:52;;;;;;;19.05;9.52;;;;;;;22.52;87.91;99927.19;4429832;32;34847;-78
2022/08/25 06:21:19;;;;;;;16.58;10.00;;;;;;;22.32;88.94;99931.59;4438627;32;33245;-84
2022/08/25 06:23:48;;;;;;;15.93;10.35;;;;;;;22.41;88.95;99936.88;4430207;32;32244;-82
2022/08/25 06:26:15;;;;;;;17.15;9.50;;;;;;;22.39;89.60;99930.72;4430750;32;33752;-82
2022/08/25 06:28:52;;;;;;;18.42;9.80;;;;;;;22.58;89.71;99932.44;4429720;32;33083;-80
2022/08/25 06:31:21;;;;;;;19.90;9.38;;;;;;;22.64;89.97;99933.28;4433340;32;33681;-84
2022/08/25 06:33:49;;;;;;;17.25;9.60;;;;;;;22.68;88.32;99933.28;4434586;32;33664;-80
2022/08/25 06:36:18;;;;;;;14.52;8.68;;;;;;;22.89;87.51;99929.72;4424197;32;34004;-80
2022/08/25 06:38:46;;;;;;;15.85;9.38;;;;;;;22.85;88.08;99933.25;4428754;32;34343;-75
2022/08/25 06:41:15;;;;;;;18.05;9.40;;;;;;;23.13;87.03;99941.09;4423839;32;34782;-78
2022/08/25 06:43:43;;;;;;;18.23;9.32;;;;;;;23.08;87.41;99935.84;4435892;32;34016;-83
2022/08/25 06:46:19;;;;;;;;;;;;;;;23.52;84.45;99940.00;4435670;32;33535;-80
2022/08/25 06:48:47;;;;;;;12.13;7.57;;;;;;;23.74;84.06;99943.41;4427688;32;33545;-78
2022/08/25 06:51:18;;;;;;;12.00;7.15;;;;;;;23.72;82.97;99945.19;4433301;32;33861;-81
2022/08/25 06:53:47;;;;;;;14.13;5.95;;;;;;;23.96;80.47;99939.78;4431882;32;33698;-82
2022/08/25 06:56:17;;;;;;;15.55;6.12;;;;;;;23.78;79.30;99949.59;4435014;32;33397;-80
2022/08/25 06:58:45;;;;;;;15.77;5.90;;;;;;;23.93;79.83;99948.59;4437237;32;33799;-82
2022/08/25 07:01:19;;;;;;;11.63;6.00;;;;;;;23.76;78.69;99948.69;4433890;32;33858;-82
2022/08/25 07:03:48;;;;;;;11.90;5.80;;;;;;;24.39;76.26;99945.56;4433743;32;33897;-79
2022/08/25 07:06:19;;;;;;;10.38;5.78;;;;;;;24.75;75.19;99942.59;4432623;32;33969;-78
2022/08/25 07:08:46;;;;;;;9.20;5.40;;;;;;;24.99;74.08;99942.28;4433153;32;33996;-80
2022/08/25 07:11:14;;;;;;;13.25;5.78;;;;;;;24.63;75.22;99944.47;4436635;32;34525;-79
2022/08/25 07:13:44;;;;;;;9.82;5.65;;;;;;;25.12;73.58;99943.03;4433997;32;34031;-81
2022/08/25 07:16:15;;;;;;;10.50;5.70;;;;;;;25.21;73.50;99942.06;4437633;32;33670;-81
2022/08/25 07:18:44;;;;;;;10.77;5.78;;;;;;;25.36;73.20;99946.28;4437351;32;33733;-79
2022/08/25 07:21:12;;;;;;;12.20;6.12;;;;;;;25.85;71.73;99937.63;4435702;32;34535;-79
2022/08/25 07:23:40;;;;;;;10.80;5.55;;;;;;;25.98;71.47;99941.88;4434390;32;33407;-82
2022/08/25 07:26:13;;;;;;;14.23;6.12;;;;;;;26.10;70.80;99940.81;4435638;32;33277;-80
2022/08/25 07:29:02;;;;;;;13.98;5.75;;;;;;;25.82;71.06;99940.31;4434126;32;33914;-78
2022/08/25 07:31:30;;;;;;;11.43;4.97;;;;;;;25.55;70.11;99939.84;4434097;32;32225;-80
2022/08/25 07:36:44;;;;;;;11.52;6.15;;;;;;;26.66;67.73;99940.72;4432452;32;32612;-84
2022/08/25 07:39:11;;;;;;;12.52;6.30;;;;;;;26.40;69.36;99950.00;4436107;32;33744;-79
2022/08/25 07:41:40;;;;;;;17.10;6.82;;;;;;;26.59;68.11;99936.44;4435808;32;33997;-80
2022/08/25 07:44:10;;;;;;;10.13;5.65;;;;;;;26.79;67.78;99942.25;4436985;32;33715;-82
2022/08/25 07:46:39;;;;;;;9.98;4.80;;;;;;;27.82;63.73;99937.38;4431971;32;33141;-82
2022/08/25 07:49:09;;;;;;;14.25;5.80;;;;;;;29.30;58.74;99943.28;4436818;32;34621;-82
2022/08/25 07:51:45;;;;;;;11.57;5.20;;;;;;;30.44;55.37;99931.66;4434869;32;34408;-82
2022/08/25 07:54:34;;;;;;;17.17;5.60;;;;;;;31.55;50.34;99926.66;4433349;32;34399;-81
2022/08/25 07:57:06;;;;;;;10.88;4.65;;;;;;;32.62;47.53;99923.09;4433418;32;33563;-81
2022/08/25 07:59:38;;;;;;;14.00;4.80;;;;;;;34.10;42.84;99923.38;4434620;32;34040;-84
2022/08/25 08:02:11;;;;;;;11.55;4.32;;;;;;;35.24;41.15;99916.44;4431654;32;34752;-84
2022/08/25 08:04:48;;;;;;;9.98;3.58;;;;;;;36.19;38.56;99923.59;4436749;32;33616;-87
2022/08/25 08:07:18;;;;;;;12.27;3.70;;;;;;;35.44;36.06;99918.00;4437614;32;32551;-78
2022/08/25 08:09:47;;;;;;;8.70;3.53;;;;;;;33.54;41.44;99909.09;4435808;32;33765;-80
2022/08/25 08:12:33;;;;;;;6.78;3.50;;;;;;;33.99;40.11;99921.22;4431605;32;33927;-79
2022/08/25 08:15:03;;;;;;;6.80;2.72;;;;;;;35.93;37.55;99922.44;4430613;32;33207;-81
2022/08/25 08:17:38;;;;;;;9.13;3.33;;;;;;;35.43;36.76;99913.59;4437403;32;35282;-81
2022/08/25 08:20:08;;;;;;;10.95;3.10;;;;;;;34.79;38.26;99927.88;4436090;32;33413;-82
2022/08/25 08:22:40;;;;;;;6.78;3.22;;;;;;;34.26;37.79;99918.97;4432772;32;32370;-81
2022/08/25 08:25:10;;;;;;;7.50;2.70;;;;;;;35.76;36.43;99920.72;4431488;32;33854;-82
2022/08/25 08:27:45;;;;;;;9.43;3.20;;;;;;;36.64;35.60;99918.19;4433645;32;33889;-81
2022/08/25 08:30:13;;;;;;;12.60;3.08;;;;;;;34.84;37.34;99921.28;4430874;32;34521;-80
2022/08/25 08:32:42;;;;;;;10.38;3.03;;;;;;;36.31;35.18;99915.75;4431150;32;34536;-79
2022/08/25 08:35:29;;;;;;;10.93;3.50;;;;;;;35.27;36.49;99918.09;4434032;32;34325;-79
2022/08/25 08:37:57;;;;;;;10.13;3.17;;;;;;;36.31;34.64;99911.22;4416112;32;33507;-83
2022/08/25 08:40:24;;;;;;;7.32;3.20;;;;;;;33.87;38.28;99912.81;4433056;32;33517;-78
2022/08/25 08:42:57;;;;;;;9.00;3.50;;;;;;;32.81;39.52;99915.09;4434252;32;35115;-80
2022/08/25 08:45:41;;;;;;;8.88;3.55;;;;;;;32.39;43.91;99909.81;4433024;32;33493;-83
2022/08/25 08:48:26;;;;;;;8.65;3.40;;;;;;;31.05;46.38;99909.87;4433061;32;33388;-79
2022/08/25 08:51:18;;;;;;;7.70;3.37;;;;;;;33.39;40.06;99913.38;4426073;32;34474;-84
2022/08/25 08:54:17;;;;;;;7.87;3.28;;;;;;;34.10;39.22;99913.47;4433819;32;33759;-82
2022/08/25 08:56:47;;;;;;;6.87;2.80;;;;;;;34.43;38.68;99904.66;4436146;32;33517;-83
2022/08/25 08:59:24;;;;;;;8.25;3.05;;;;;;;34.55;39.07;99895.91;4419139;32;32338;-79
2022/08/25 09:01:59;;;;;;;8.90;2.97;;;;;;;34.02;38.91;99904.94;4434257;32;33838;-79
2022/08/25 09:04:43;;;;;;;7.32;2.60;;;;;;;33.41;40.04;99898.06;4433504;32;33878;-82
2022/08/25 09:07:24;;;;;;;6.57;2.95;;;;;;;32.60;43.00;99892.81;4436012;32;33505;-81
2022/08/25 09:09:52;;;;;;;8.07;3.05;;;;;;;31.65;42.43;99900.38;4433465;32;33151;-79
2022/08/25 09:12:57;;;;;;;8.73;3.17;;;;;;;31.22;45.26;99906.53;4432243;32;33456;-81
2022/08/25 09:16:53;;;;;;;;;;;;;;;30.91;43.82;99889.84;4433337;32;33110;-80
2022/08/25 09:18:25;;;;;;;8.27;3.03;;;;;;;31.09;44.96;99890.94;4435202;32;34150;-78
2022/08/25 09:21:13;;;;;;;9.45;3.25;;;;;;;31.77;45.17;99895.44;4433451;32;33394;-78
2022/08/25 09:24:03;;;;;;;7.60;3.35;;;;;;;31.20;43.91;99887.00;4432499;32;33628;-78
2022/08/25 09:27:02;;;;;;;7.53;3.08;;;;;;;31.08;43.55;99883.88;4429819;32;34788;-82
2022/08/25 09:29:44;;;;;;;6.37;3.12;;;;;;;30.22;44.04;99880.72;4431591;32;34544;-77
2022/08/25 09:32:12;;;;;;;5.78;2.95;;;;;;;31.40;44.40;99871.00;4432848;32;33501;-77
2022/08/25 09:34:42;;;;;;;5.97;2.83;;;;;;;31.23;44.92;99874.34;4429641;32;33915;-76
2022/08/25 09:37:09;;;;;;;8.10;2.97;;;;;;;30.77;41.59;99863.59;4437008;32;34599;-79
2022/08/25 09:39:37;;;;;;;7.32;2.75;;;;;;;31.76;40.94;99867.81;4430058;32;33861;-78
2022/08/25 09:42:05;;;;;;;8.15;3.15;;;;;;;31.91;40.97;99860.91;4434320;32;34129;-80
2022/08/25 09:44:37;;;;;;;6.75;2.80;;;;;;;32.21;41.91;99861.44;4434028;32;33884;-78
2022/08/25 09:47:06;;;;;;;6.20;3.25;;;;;;;32.53;40.00;99856.47;4436332;32;33877;-80
2022/08/25 09:49:40;;;;;;;6.22;3.03;;;;;;;32.70;39.30;99853.03;4431617;32;33968;-80
2022/08/25 09:52:33;;;;;;;7.65;2.90;;;;;;;32.48;39.65;99847.75;4430258;32;33710;-77
2022/08/25 09:55:26;;;;;;;7.30;2.97;;;;;;;32.51;39.68;99842.28;4436876;32;33876;-83
2022/08/25 09:57:56;;;;;;;6.53;2.75;;;;;;;33.23;38.25;99840.75;4431362;32;32373;-80
2022/08/25 10:00:35;;;;;;;9.77;2.67;;;;;;;32.78;37.53;99839.28;4436313;32;34527;-77
2022/08/25 10:03:32;;;;;;;7.05;3.40;;;;;;;31.41;40.88;99837.97;4436725;32;33427;-80
2022/08/25 10:06:12;;;;;;;7.85;3.08;;;;;;;32.22;40.02;99836.41;4426085;32;33869;-81
2022/08/25 10:08:43;;;;;;;5.87;3.20;;;;;;;33.05;40.26;99838.00;4428630;32;32777;-81
2022/08/25 10:11:59;;;;;;;6.45;3.20;;;;;;;33.14;36.88;99835.84;4433288;32;33660;-80
2022/08/25 10:14:39;;;;;;;5.28;2.90;;;;;;;33.28;36.77;99825.28;4436573;32;32266;-78
2022/08/25 10:17:26;;;;;;;10.02;3.22;;;;;;;32.93;37.71;99822.44;4437200;32;34024;-83
2022/08/25 10:20:08;;;;;;;6.25;2.65;;;;;;;34.07;36.57;99824.91;4431669;32;34538;-82
2022/08/25 10:22:37;;;;;;;9.43;2.85;;;;;;;33.51;38.34;99824.16;4435209;32;34533;-79
2022/08/25 10:25:08;;;;;;;7.72;2.92;;;;;;;34.03;35.72;99821.53;4436094;32;33209;-82
2022/08/25 10:27:48;;;;;;;6.28;3.20;;;;;;;33.91;36.77;99821.31;4437754;32;33244;-78
2022/08/25 10:30:23;;;;;;;10.38;2.92;;;;;;;34.01;35.97;99811.81;4430913;32;34576;-82
2022/08/25 10:32:53;;;;;;;9.48;3.00;;;;;;;34.02;35.10;99818.94;4435391;32;33850;-78
2022/08/25 10:35:29;;;;;;;7.47;3.05;;;;;;;33.00;35.99;99806.94;4434450;32;32984;-80
2022/08/25 10:38:16;;;;;;;6.70;2.67;;;;;;;33.59;36.47;99794.22;4437907;32;34268;-81
2022/08/25 10:40:55;;;;;;;6.50;2.67;;;;;;;32.64;37.43;99799.69;4436848;32;34731;-83
2022/08/25 10:43:34;;;;;;;7.05;2.90;;;;;;;32.86;37.53;99804.94;4436957;32;33848;-76
2022/08/25 10:46:15;;;;;;;5.87;3.17;;;;;;;32.56;37.57;99802.72;4436010;32;33355;-80
2022/08/25 10:49:02;;;;;;;7.85;2.95;;;;;;;33.30;36.09;99796.53;4426252;32;34119;-76
2022/08/25 10:51:44;;;;;;;6.68;3.20;;;;;;;33.26;37.66;99794.97;4433845;32;32800;-80
2022/08/25 10:54:39;;;;;;;8.23;3.00;;;;;;;33.76;36.80;99788.03;4433988;32;33427;-83
2022/08/25 10:57:36;;;;;;;5.80;3.15;;;;;;;34.23;35.23;99790.06;4431793;32;33889;-76
2022/08/25 11:00:05;;;;;;;7.15;2.90;;;;;;;33.58;37.22;99789.81;4427412;32;33814;-82
2022/08/25 11:02:52;;;;;;;7.37;3.08;;;;;;;33.56;36.46;99783.66;4436059;32;33535;-86
2022/08/25 11:05:40;;;;;;;4.60;2.55;;;;;;;33.75;36.81;99776.44;4435549;32;34145;-83
2022/08/25 11:08:20;;;;;;;6.60;3.22;;;;;;;33.42;37.43;99771.78;4435994;32;33103;-84
2022/08/25 11:10:55;;;;;;;7.87;2.90;;;;;;;33.94;36.29;99770.97;4439112;32;32048;-84
2022/08/25 11:13:26;;;;;;;6.40;2.90;;;;;;;31.78;38.93;99766.84;4416984;32;33617;-83
2022/08/25 11:16:00;;;;;;;5.93;3.10;;;;;;;31.89;40.00;99767.25;4435298;32;32964;-81
2022/08/25 11:18:52;;;;;;;8.18;3.00;;;;;;;32.57;38.55;99769.62;4423768;32;31368;-81
2022/08/25 11:21:41;;;;;;;8.27;3.00;;;;;;;32.71;36.93;99760.91;4430010;32;33915;-77
2022/08/25 11:24:36;;;;;;;7.03;3.08;;;;;;;32.93;38.22;99758.06;4434490;32;34929;-81
2022/08/25 11:27:12;;;;;;;9.45;3.40;;;;;;;32.49;38.47;99755.63;4437686;32;33656;-82
2022/08/25 11:29:41;;;;;;;7.65;3.20;;;;;;;32.84;35.84;99750.47;4430782;32;32872;-78
2022/08/25 11:32:09;;;;;;;5.10;3.00;;;;;;;32.80;35.34;99754.22;4433538;32;34601;-83
2022/08/25 11:34:36;;;;;;;7.30;3.10;;;;;;;33.63;34.89;99743.00;4438318;32;34068;-79
2022/08/25 11:37:29;;;;;;;6.22;3.10;;;;;;;33.44;35.61;99742.19;4436917;32;33622;-81
2022/08/25 11:40:44;;;;;;;7.75;2.90;;;;;;;34.03;35.14;99735.50;4437689;32;32899;-81
2022/08/25 11:43:47;;;;;;;8.18;3.50;;;;;;;34.83;34.27;99730.34;4396349;32;33874;-82
2022/08/25 11:46:18;;;;;;;6.93;3.12;;;;;;;34.41;33.56;99734.44;4438120;32;33956;-85
2022/08/25 11:49:07;;;;;;;6.37;3.30;;;;;;;34.48;32.83;99725.09;4436603;32;34155;-83
2022/08/25 11:51:46;;;;;;;9.77;3.47;;;;;;;34.83;33.03;99717.75;4434533;32;33651;-82
2022/08/25 11:54:19;;;;;;;6.93;2.87;;;;;;;35.32;32.62;99722.12;4432171;32;33943;-80
2022/08/25 11:56:58;;;;;;;8.55;3.15;;;;;;;35.61;31.78;99722.22;4431815;32;33869;-81
2022/08/25 11:59:50;;;;;;;6.55;3.22;;;;;;;34.60;32.63;99719.00;4434864;32;33534;-83
2022/08/25 12:02:49;;;;;;;7.90;3.03;;;;;;;35.59;32.17;99707.97;4437826;32;33238;-87